Airfield :
LOGIN :

Register | Disclaimer

   EN    FR    IT 

 










Legend :    VFR   Marginal VFR   IFR   Intensive IFR   Very Intensive IFR
Visi :
Ceiling :
>= 8 km
>= 3000ft
5 to 8 km
1000 to 3000 ft
1500m to 5 km
500 to 1000 ft
800 to 1500m
200 to 500 ft
< 800m
< 200 ft
Symbols :   Thunderstorms  Fog  Heavy snow  Heavy precipitations  Wind > 20 kt
SIGMETs :     Misc.  Thunderstorms  Icing  Turbulence  Mountain Waves  Volcanic Ashes






- Airport Elevation : 34 ft
- IATA code : BLK


EGNH - Blackpool

CURRENT METAR :
  • 210950Z 18007KT 6000 -RADZ FEW002 SCT012 BKN024 14/14 Q0992

EXPIRED METARs :
  • 210920Z 18008KT 9000 -RA FEW008 SCT015 BKN024 14/13 Q0992
  • 210850Z 17009KT 9000 -SHRA FEW008 BKN020 14/13 Q0993
  • 210820Z 17008KT 9999 VCSH FEW021 BKN033 13/13 Q0993
  • 210750Z 16009KT 9999 VCSH FEW021 BKN033 16/15 Q0993
  • 210720Z 17009KT 9000 VCSH FEW021 BKN033 13/13 Q0993

TAF TAF EGNH
Valid from the 21 at 09:00 until the 21 at 18:00 UTC


210759Z 2109/2118 17008KT 9999 SCT020
TEMPO 2109/2113 7000 RA BKN014
PROB30
TEMPO 2109/2113 BKN006
BECMG 2110/2113 26010KT
ATIS : +44 1253 343 434 (x8315)



MET'MAP, your aeronautical weather chart ! - Copyright ORBIFLY December 2007 - Disclaimer

ORBIFLY MET'MAP TEAM :

Programming & Development : Alexandra Zaïnal
Concept & original design : Baudouin d'Aumeries
Assistance for programming : Marc-Olivier Méhu
Technical & hardware support : Manuel Goepfert

Contact : metmap@orbifly.com




SOURCES & CREDITS :

   NOAA